Time;durP1;ratioP1;P1;durP2;ratioP2;P2;SDS_P1;SDS_P2;PMS_P1;PMS_P2;Temp;Humidity;BMP_temperature;BMP_pressure;BME280_temperature;BME280_humidity;BME280_pressure;Samples;Min_cycle;Max_cycle;Signal;HPM_P1;HPM_P2
2022/06/06 00:00:44;;;;;;;;;;;15.40;99.90;;;;;;5034473;28;19921;-75
2022/06/06 00:03:09;;;;;;;;;;;15.40;99.90;;;;;;5034839;28;19975;-76
2022/06/06 00:05:36;;;;;;;;;;;15.40;99.90;;;;;;5034690;28;19943;-75
2022/06/06 00:08:05;;;;;;;;;;;15.40;99.90;;;;;;5033545;28;19920;-76
2022/06/06 00:10:30;;;;;;;;;;;15.40;99.90;;;;;;5034656;28;19921;-76
2022/06/06 00:12:56;;;;;;;;;;;15.40;99.90;;;;;;5034673;28;19967;-75
2022/06/06 00:15:22;;;;;;;;;;;15.40;99.90;;;;;;5034596;28;19928;-76
2022/06/06 00:17:48;;;;;;;;;;;15.40;99.90;;;;;;5034592;28;19928;-76
2022/06/06 00:20:14;;;;;;;;;;;15.40;99.90;;;;;;5000725;28;19921;-76
2022/06/06 00:22:40;;;;;;;;;;;15.40;99.90;;;;;;5034342;28;19954;-76
2022/06/06 00:25:06;;;;;;;;;;;15.40;99.90;;;;;;5034350;28;19921;-76
2022/06/06 00:27:31;;;;;;;;;;;15.40;99.90;;;;;;5034215;28;19921;-76
2022/06/06 00:29:57;;;;;;;;;;;15.40;99.90;;;;;;5034629;28;19925;-76
2022/06/06 00:35:06;;;;;;;;;;;15.40;99.90;;;;;;5035222;28;20257;-76
2022/06/06 00:37:32;;;;;;;;;;;15.30;99.90;;;;;;5034667;28;19975;-76
2022/06/06 00:39:58;;;;;;;;;;;15.30;99.90;;;;;;5034710;28;19927;-75
2022/06/06 00:42:28;;;;;;;;;;;15.30;99.90;;;;;;5034072;28;19921;-76
2022/06/06 00:45:12;;;;;;;;;;;15.30;99.90;;;;;;5034634;28;20020;-75
2022/06/06 00:47:38;;;;;;;;;;;15.30;99.90;;;;;;5034862;28;19921;-75
2022/06/06 00:50:08;;;;;;;;;;;15.30;99.90;;;;;;5033719;28;20012;-76
2022/06/06 00:52:34;;;;;;;;;;;15.30;99.90;;;;;;5032834;28;19972;-76
2022/06/06 00:55:02;;;;;;;;;;;15.30;99.90;;;;;;5035025;28;19921;-75
2022/06/06 00:57:28;;;;;;;;;;;15.30;99.90;;;;;;5034782;28;19956;-75
2022/06/06 00:59:54;;;;;;;;;;;15.30;99.90;;;;;;5017346;28;19921;-75
2022/06/06 01:02:20;;;;;;;;;;;15.30;99.90;;;;;;5038196;28;19935;-70
2022/06/06 01:04:45;;;;;;;;;;;15.30;99.90;;;;;;5056336;28;19921;-70
2022/06/06 01:07:11;;;;;;;;;;;15.20;99.90;;;;;;5038827;28;19921;-70
2022/06/06 01:09:37;;;;;;;;;;;15.30;99.90;;;;;;5038347;28;19905;-74
2022/06/06 01:12:03;;;;;;;;;;;15.20;99.90;;;;;;5058022;28;19912;-76
2022/06/06 01:14:31;;;;;;;;;;;15.20;99.90;;;;;;5023978;28;20386;-76
2022/06/06 01:17:00;;;;;;;;;;;15.20;99.90;;;;;;5020684;28;20291;-76
2022/06/06 01:19:45;;;;;;;;;;;15.20;99.90;;;;;;5037887;28;19943;-76
2022/06/06 01:22:25;;;;;;;;;;;15.10;99.90;;;;;;5038320;28;19928;-75
2022/06/06 01:24:54;;;;;;;;;;;15.00;99.90;;;;;;5037769;28;20007;-76
2022/06/06 01:27:22;;;;;;;;;;;15.10;99.90;;;;;;5038311;28;20349;-76
2022/06/06 01:29:49;;;;;;;;;;;15.00;99.90;;;;;;5037730;28;19925;-76
2022/06/06 01:32:16;;;;;;;;;;;14.90;99.90;;;;;;5020805;28;19971;-76
2022/06/06 01:34:42;;;;;;;;;;;15.00;99.90;;;;;;5036370;28;19921;-76
2022/06/06 01:37:23;;;;;;;;;;;15.00;99.90;;;;;;5019908;28;20381;-76
2022/06/06 01:39:48;;;;;;;;;;;14.90;99.90;;;;;;5038264;28;20055;-76
2022/06/06 01:42:15;;;;;;;;;;;15.00;99.90;;;;;;5020285;28;20007;-76
2022/06/06 01:44:41;;;;;;;;;;;15.00;99.90;;;;;;5036248;28;19928;-77
2022/06/06 01:47:08;;;;;;;;;;;14.90;99.90;;;;;;5036713;28;19928;-76
2022/06/06 01:49:33;;;;;;;;;;;14.90;99.90;;;;;;5036096;28;19995;-77
2022/06/06 01:52:00;;;;;;;;;;;14.90;99.90;;;;;;5037270;28;19964;-76
2022/06/06 01:54:25;;;;;;;;;;;14.90;99.90;;;;;;5037154;28;19944;-76
2022/06/06 01:56:52;;;;;;;;;;;14.90;99.90;;;;;;5037094;28;20373;-75
2022/06/06 01:59:17;;;;;;;;;;;14.80;99.90;;;;;;5036331;28;19921;-77
2022/06/06 02:01:43;;;;;;;;;;;14.80;99.90;;;;;;5037047;28;20425;-77
2022/06/06 02:04:10;;;;;;;;;;;14.80;99.90;;;;;;5036448;28;20353;-78
2022/06/06 02:06:38;;;;;;;;;;;14.70;99.90;;;;;;5037056;28;20258;-77
2022/06/06 02:09:03;;;;;;;;;;;14.70;99.90;;;;;;5019296;28;19928;-77
2022/06/06 02:11:29;;;;;;;;;;;14.70;99.90;;;;;;5037352;28;19929;-79
2022/06/06 02:13:54;;;;;;;;;;;14.70;99.90;;;;;;5037188;28;19932;-80
2022/06/06 02:16:20;;;;;;;;;;;14.70;99.90;;;;;;5035719;28;19933;-79
2022/06/06 02:18:45;;;;;;;;;;;14.60;99.90;;;;;;5019133;28;19925;-77
2022/06/06 02:21:11;;;;;;;;;;;14.60;99.90;;;;;;5037552;28;19967;-78
2022/06/06 02:23:36;;;;;;;;;;;14.60;99.90;;;;;;5036301;28;19935;-80
2022/06/06 02:26:02;;;;;;;;;;;14.60;99.90;;;;;;5036666;28;19920;-77
2022/06/06 02:28:28;;;;;;;;;;;14.60;99.90;;;;;;5036738;28;20328;-78
2022/06/06 02:30:53;;;;;;;;;;;14.60;99.90;;;;;;5037222;28;20004;-79
2022/06/06 02:33:19;;;;;;;;;;;14.60;99.90;;;;;;5036558;28;19921;-77
2022/06/06 02:35:45;;;;;;;;;;;14.50;99.90;;;;;;5036413;28;19928;-78
2022/06/06 02:38:10;;;;;;;;;;;14.50;99.90;;;;;;5019068;28;20357;-78
2022/06/06 02:40:36;;;;;;;;;;;14.50;99.90;;;;;;5019045;28;19921;-78
2022/06/06 02:43:01;;;;;;;;;;;14.50;99.90;;;;;;5036999;28;20304;-78
2022/06/06 02:45:27;;;;;;;;;;;14.50;99.90;;;;;;5018637;28;20312;-77
2022/06/06 02:47:53;;;;;;;;;;;14.50;99.90;;;;;;5036390;28;20003;-78
2022/06/06 02:50:20;;;;;;;;;;;14.50;99.90;;;;;;5035236;28;20372;-77
2022/06/06 02:52:46;;;;;;;;;;;14.50;99.90;;;;;;5036175;28;19975;-78
2022/06/06 02:55:11;;;;;;;;;;;14.50;99.90;;;;;;5036199;28;19921;-77
2022/06/06 02:57:37;;;;;;;;;;;14.60;99.90;;;;;;5041992;28;19981;-79
2022/06/06 03:00:04;;;;;;;;;;;14.50;99.90;;;;;;5053410;28;19921;-79
2022/06/06 03:02:31;;;;;;;;;;;14.50;99.90;;;;;;5053422;28;19921;-77
2022/06/06 03:04:57;;;;;;;;;;;14.50;99.90;;;;;;5048445;28;19920;-78
2022/06/06 03:07:31;;;;;;;;;;;14.50;99.90;;;;;;5058629;28;19964;-78
2022/06/06 03:10:06;;;;;;;;;;;14.50;99.90;;;;;;5060474;28;19905;-79
2022/06/06 03:12:38;;;;;;;;;;;14.40;99.90;;;;;;5060577;28;19905;-78
2022/06/06 03:15:13;;;;;;;;;;;14.50;99.90;;;;;;5045016;28;20008;-79
2022/06/06 03:21:02;;;;;;;;;;;14.50;99.90;;;;;;5035198;28;19967;-77
2022/06/06 03:23:31;;;;;;;;;;;14.50;99.90;;;;;;5037317;28;19924;-78
2022/06/06 03:26:05;;;;;;;;;;;14.50;99.90;;;;;;5035868;28;19925;-77
2022/06/06 03:28:37;;;;;;;;;;;14.50;99.90;;;;;;5036595;28;19921;-78
2022/06/06 03:31:08;;;;;;;;;;;14.50;99.90;;;;;;5037645;28;19928;-78
2022/06/06 03:33:36;;;;;;;;;;;14.50;99.90;;;;;;5036412;28;19951;-77
2022/06/06 03:36:05;;;;;;;;;;;14.50;99.90;;;;;;5019725;28;19928;-78
2022/06/06 03:38:36;;;;;;;;;;;14.50;99.90;;;;;;5036603;28;20353;-78
2022/06/06 03:41:05;;;;;;;;;;;14.50;99.90;;;;;;5037088;28;19975;-77
2022/06/06 03:43:36;;;;;;;;;;;14.50;99.90;;;;;;5037054;28;19921;-77
2022/06/06 03:46:09;;;;;;;;;;;14.50;99.90;;;;;;5036931;28;20260;-77
2022/06/06 03:48:46;;;;;;;;;;;14.50;99.90;;;;;;5036114;28;20281;-77
2022/06/06 03:51:18;;;;;;;;;;;14.50;99.90;;;;;;5035005;28;19928;-77
2022/06/06 03:54:02;;;;;;;;;;;14.50;99.90;;;;;;5035583;28;20361;-78
2022/06/06 03:56:27;;;;;;;;;;;14.50;99.90;;;;;;5035942;28;20014;-77
2022/06/06 03:58:53;;;;;;;;;;;14.50;99.90;;;;;;5035461;28;19921;-77
2022/06/06 04:01:20;;;;;;;;;;;14.50;99.90;;;;;;5035393;28;20349;-77
2022/06/06 04:03:46;;;;;;;;;;;14.50;99.90;;;;;;5035431;28;19921;-77
2022/06/06 04:06:11;;;;;;;;;;;14.50;99.90;;;;;;5034155;28;19928;-78
2022/06/06 04:08:37;;;;;;;;;;;14.50;99.90;;;;;;5018595;28;19960;-77
2022/06/06 04:11:12;;;;;;;;;;;14.40;99.90;;;;;;5035086;28;19975;-77
2022/06/06 04:13:46;;;;;;;;;;;14.40;99.90;;;;;;5017483;28;19948;-78
2022/06/06 04:16:15;;;;;;;;;;;14.40;99.90;;;;;;5035374;28;19920;-77
2022/06/06 04:18:41;;;;;;;;;;;14.30;99.90;;;;;;5034715;28;19932;-77
2022/06/06 04:21:12;;;;;;;;;;;14.30;99.90;;;;;;5034640;28;19928;-76
2022/06/06 04:23:49;;;;;;;;;;;14.30;99.90;;;;;;5033309;28;19921;-77
2022/06/06 04:26:20;;;;;;;;;;;14.20;99.90;;;;;;5034690;28;19925;-77
2022/06/06 04:29:04;;;;;;;;;;;14.20;99.90;;;;;;5035016;28;20012;-76
2022/06/06 04:31:39;;;;;;;;;;;14.20;99.90;;;;;;5034528;28;19921;-77
2022/06/06 04:34:09;;;;;;;;;;;14.20;99.90;;;;;;5017200;28;19925;-77
2022/06/06 04:36:41;;;;;;;;;;;14.20;99.90;;;;;;5016701;28;19920;-78
2022/06/06 04:39:29;;;;;;;;;;;14.20;99.90;;;;;;5017188;28;20250;-79
2022/06/06 04:41:56;;;;;;;;;;;14.20;99.90;;;;;;5032997;28;19991;-78
2022/06/06 04:44:45;;;;;;;;;;;14.20;99.90;;;;;;5033341;28;19928;-78
2022/06/06 04:47:13;;;;;;;;;;;14.20;99.90;;;;;;5025923;28;20316;-79
2022/06/06 04:49:38;;;;;;;;;;;14.20;99.90;;;;;;5033105;28;19987;-78
2022/06/06 04:52:04;;;;;;;;;;;14.20;99.90;;;;;;5016618;28;19921;-79
2022/06/06 04:54:30;;;;;;;;;;;14.20;99.90;;;;;;5017356;28;19944;-78
2022/06/06 04:56:55;;;;;;;;;;;14.20;99.90;;;;;;5021874;28;19984;-78
2022/06/06 04:59:21;;;;;;;;;;;14.20;99.90;;;;;;5050043;28;19921;-79
2022/06/06 05:01:47;;;;;;;;;;;14.20;99.90;;;;;;5046031;28;19928;-78
2022/06/06 05:04:12;;;;;;;;;;;14.20;99.90;;;;;;5024992;28;19921;-79
2022/06/06 05:06:41;;;;;;;;;;;14.10;99.90;;;;;;5054996;28;19979;-79
2022/06/06 05:09:21;;;;;;;;;;;14.20;99.90;;;;;;5058414;28;19912;-82
2022/06/06 05:11:56;;;;;;;;;;;14.10;99.90;;;;;;5058611;28;19961;-80
2022/06/06 05:14:29;;;;;;;;;;;14.10;99.90;;;;;;5058093;28;19904;-79
2022/06/06 05:16:57;;;;;;;;;;;14.10;99.90;;;;;;5044314;28;20258;-79
2022/06/06 05:19:26;;;;;;;;;;;14.10;99.90;;;;;;5016857;28;19971;-79
2022/06/06 05:21:57;;;;;;;;;;;14.00;99.90;;;;;;5034188;28;19991;-78
2022/06/06 05:24:24;;;;;;;;;;;14.00;99.90;;;;;;5034455;28;20285;-77
2022/06/06 05:26:54;;;;;;;;;;;14.00;99.90;;;;;;5032903;28;19972;-77
2022/06/06 05:29:27;;;;;;;;;;;14.00;99.90;;;;;;5032886;28;19920;-78
2022/06/06 05:31:53;;;;;;;;;;;14.00;99.90;;;;;;5032736;28;19921;-77
2022/06/06 05:34:25;;;;;;;;;;;13.90;99.90;;;;;;5033785;28;20246;-76
2022/06/06 05:36:57;;;;;;;;;;;13.90;99.90;;;;;;5016477;28;19920;-77
2022/06/06 05:39:42;;;;;;;;;;;13.90;99.90;;;;;;5032472;28;20258;-77
2022/06/06 05:42:21;;;;;;;;;;;13.90;99.90;;;;;;5032487;28;20042;-77
2022/06/06 05:44:49;;;;;;;;;;;13.90;99.90;;;;;;5016277;28;19921;-77
2022/06/06 05:47:36;;;;;;;;;;;13.90;99.90;;;;;;5034003;28;19920;-77
2022/06/06 05:50:12;;;;;;;;;;;13.80;99.90;;;;;;5003070;28;20011;-78
2022/06/06 05:52:47;;;;;;;;;;;13.80;99.90;;;;;;5016835;28;20019;-78
2022/06/06 05:55:29;;;;;;;;;;;13.80;99.90;;;;;;5033567;28;19936;-78
2022/06/06 05:57:55;;;;;;;;;;;13.80;99.90;;;;;;5034623;28;20315;-77
2022/06/06 06:00:39;;;;;;;;;;;13.80;99.90;;;;;;5019531;28;19921;-77
2022/06/06 06:03:05;;;;;;;;;;;13.80;99.90;;;;;;5036488;28;19992;-77
2022/06/06 06:05:30;;;;;;;;;;;13.90;99.90;;;;;;5020267;28;19925;-76
2022/06/06 06:07:59;;;;;;;;;;;13.90;99.90;;;;;;5037255;28;19921;-76
2022/06/06 06:10:48;;;;;;;;;;;14.00;99.90;;;;;;5037074;28;19921;-77
2022/06/06 06:13:31;;;;;;;;;;;14.00;99.90;;;;;;5019998;28;20070;-77
2022/06/06 06:15:58;;;;;;;;;;;14.10;99.90;;;;;;5037097;28;19921;-77
2022/06/06 06:18:27;;;;;;;;;;;14.10;99.90;;;;;;5019166;28;20015;-77
2022/06/06 06:20:59;;;;;;;;;;;14.10;99.90;;;;;;5036663;28;20012;-77
2022/06/06 06:23:26;;;;;;;;;;;14.10;99.90;;;;;;5035537;28;19921;-77
2022/06/06 06:25:51;;;;;;;;;;;14.10;99.90;;;;;;5035491;28;19928;-77
2022/06/06 06:28:17;;;;;;;;;;;14.10;99.90;;;;;;5035691;28;20361;-78
2022/06/06 06:31:02;;;;;;;;;;;14.10;99.90;;;;;;5036606;28;19925;-77
2022/06/06 06:33:46;;;;;;;;;;;14.00;99.90;;;;;;5036655;28;19933;-77
2022/06/06 06:36:19;;;;;;;;;;;14.00;99.90;;;;;;5036644;28;20278;-77
2022/06/06 06:38:51;;;;;;;;;;;14.10;99.90;;;;;;5019078;28;19921;-77
2022/06/06 06:41:25;;;;;;;;;;;14.10;99.90;;;;;;5037236;28;20265;-77
2022/06/06 06:43:51;;;;;;;;;;;14.10;99.90;;;;;;5036453;28;20011;-77
2022/06/06 06:46:20;;;;;;;;;;;14.10;99.90;;;;;;5036346;28;20090;-77
2022/06/06 06:48:46;;;;;;;;;;;14.10;99.90;;;;;;5002656;28;19928;-78
2022/06/06 06:51:16;;;;;;;;;;;14.20;99.90;;;;;;5036441;28;20277;-77
2022/06/06 06:53:41;;;;;;;;;;;14.20;99.90;;;;;;5036421;28;19921;-77
2022/06/06 06:56:25;;;;;;;;;;;14.30;99.90;;;;;;5040523;28;19921;-77
2022/06/06 06:59:03;;;;;;;;;;;14.30;99.90;;;;;;5044474;28;19943;-77
2022/06/06 07:01:37;;;;;;;;;;;14.40;99.90;;;;;;5040617;28;19924;-77
2022/06/06 07:09:34;;;;;;;;;;;14.60;99.90;;;;;;5059587;28;19921;-79
2022/06/06 07:12:18;;;;;;;;;;;14.70;99.90;;;;;;5060574;28;19905;-78
2022/06/06 07:14:47;;;;;;;;;;;14.80;99.90;;;;;;5050382;28;20273;-77
2022/06/06 07:17:12;;;;;;;;;;;14.80;99.90;;;;;;5036317;28;19928;-77
2022/06/06 07:19:42;;;;;;;;;;;14.90;99.90;;;;;;5034816;28;19925;-77
2022/06/06 07:22:08;;;;;;;;;;;14.90;99.90;;;;;;5036419;28;20312;-77
2022/06/06 07:24:33;;;;;;;;;;;15.00;99.90;;;;;;5035261;28;19988;-78
2022/06/06 07:27:00;;;;;;;;;;;15.00;99.90;;;;;;5034517;28;19921;-78
2022/06/06 07:29:25;;;;;;;;;;;15.00;99.90;;;;;;5017990;28;19921;-82
2022/06/06 07:31:54;;;;;;;;;;;15.20;99.90;;;;;;5035287;28;20027;-77
2022/06/06 07:34:26;;;;;;;;;;;15.20;99.90;;;;;;5035621;28;19928;-77
2022/06/06 07:37:01;;;;;;;;;;;15.30;99.90;;;;;;5035439;28;19921;-79
2022/06/06 07:39:35;;;;;;;;;;;15.40;99.90;;;;;;5035511;28;19927;-76
2022/06/06 07:42:03;;;;;;;;;;;15.60;99.90;;;;;;5036086;28;19921;-76
2022/06/06 07:44:29;;;;;;;;;;;15.80;99.90;;;;;;5035194;28;19951;-76
2022/06/06 07:47:07;;;;;;;;;;;15.80;99.90;;;;;;5035457;28;19932;-76
2022/06/06 07:49:35;;;;;;;;;;;15.80;99.90;;;;;;5035972;28;20063;-76
2022/06/06 07:52:06;;;;;;;;;;;15.80;99.90;;;;;;5034309;28;19924;-77
2022/06/06 07:54:31;;;;;;;;;;;15.80;99.90;;;;;;5033884;28;19921;-76
2022/06/06 07:56:57;;;;;;;;;;;15.70;99.90;;;;;;5034980;28;19927;-76
2022/06/06 07:59:25;;;;;;;;;;;15.60;99.90;;;;;;5034911;28;19968;-75
2022/06/06 08:02:04;;;;;;;;;;;15.50;99.90;;;;;;5034754;28;19964;-76
2022/06/06 08:04:49;;;;;;;;;;;15.60;99.90;;;;;;5034029;28;20410;-80
2022/06/06 08:07:24;;;;;;;;;;;15.70;99.90;;;;;;5034789;28;20340;-76
2022/06/06 08:09:52;;;;;;;;;;;15.90;99.90;;;;;;5033456;28;19925;-76
2022/06/06 08:12:37;;;;;;;;;;;16.00;99.90;;;;;;5033542;28;19963;-76
2022/06/06 08:15:21;;;;;;;;;;;16.20;99.90;;;;;;5035215;28;19928;-77
2022/06/06 08:17:52;;;;;;;;;;;16.20;99.90;;;;;;5034869;28;20010;-76
2022/06/06 08:20:21;;;;;;;;;;;16.10;99.90;;;;;;5034335;28;19925;-76
2022/06/06 08:22:47;;;;;;;;;;;16.10;99.90;;;;;;5018112;28;19920;-76
2022/06/06 08:25:14;;;;;;;;;;;16.20;99.90;;;;;;5033189;28;19928;-77
2022/06/06 08:27:44;;;;;;;;;;;16.30;99.90;;;;;;5018132;28;19920;-77
2022/06/06 08:30:10;;;;;;;;;;;16.30;99.90;;;;;;5035211;28;19924;-75
2022/06/06 08:32:36;;;;;;;;;;;16.30;99.90;;;;;;5034368;28;19976;-76
2022/06/06 08:35:01;;;;;;;;;;;16.20;99.90;;;;;;5034368;28;19920;-77
2022/06/06 08:37:30;;;;;;;;;;;16.20;99.90;;;;;;5034404;28;19927;-75
2022/06/06 08:39:56;;;;;;;;;;;16.30;99.90;;;;;;5033310;28;19921;-76
2022/06/06 08:42:21;;;;;;;;;;;16.30;99.90;;;;;;5034272;28;20293;-76
2022/06/06 08:44:53;;;;;;;;;;;16.30;99.90;;;;;;5034185;28;20286;-76
2022/06/06 08:47:32;;;;;;;;;;;16.30;99.90;;;;;;5034820;28;19948;-76
2022/06/06 08:53:02;;;;;;;;;;;16.50;99.90;;;;;;5034438;28;19921;-77
2022/06/06 08:55:34;;;;;;;;;;;16.70;99.90;;;;;;5040881;28;19971;-78
2022/06/06 08:58:03;;;;;;;;;;;16.90;99.90;;;;;;5041805;28;19913;-78
2022/06/06 09:00:34;;;;;;;;;;;17.00;99.90;;;;;;5056760;28;19964;-77
2022/06/06 09:03:15;;;;;;;;;;;17.00;99.90;;;;;;5018628;28;19964;-77
2022/06/06 09:05:55;;;;;;;;;;;17.00;99.90;;;;;;5058635;28;19912;-81
2022/06/06 09:08:40;;;;;;;;;;;16.90;99.90;;;;;;5058691;28;19925;-77
2022/06/06 09:11:31;;;;;;;;;;;16.70;99.90;;;;;;5058765;28;19905;-78
2022/06/06 09:14:15;;;;;;;;;;;16.60;99.90;;;;;;5014250;28;19928;-77
2022/06/06 09:16:59;;;;;;;;;;;16.50;99.90;;;;;;5034292;28;19975;-77
2022/06/06 09:19:44;;;;;;;;;;;16.50;99.90;;;;;;5032810;28;19964;-77
2022/06/06 09:22:12;;;;;;;;;;;16.70;99.90;;;;;;5034152;28;19921;-77
2022/06/06 09:24:38;;;;;;;;;;;16.80;99.90;;;;;;5034288;28;19921;-78
2022/06/06 09:27:19;;;;;;;;;;;17.00;99.90;;;;;;5034366;28;20246;-77
2022/06/06 09:29:50;;;;;;;;;;;17.20;99.90;;;;;;5034883;28;19963;-77
2022/06/06 09:32:34;;;;;;;;;;;17.50;99.90;;;;;;5018118;28;19921;-77
2022/06/06 09:35:19;;;;;;;;;;;17.70;99.90;;;;;;5038361;28;19921;-77
2022/06/06 09:38:04;;;;;;;;;;;18.00;99.90;;;;;;5037573;28;19979;-77
2022/06/06 09:40:34;;;;;;;;;;;18.10;99.90;;;;;;5037583;28;19967;-77
2022/06/06 09:43:05;;;;;;;;;;;18.10;99.90;;;;;;5019952;28;19921;-76
2022/06/06 09:45:37;;;;;;;;;;;18.10;99.90;;;;;;5037544;28;19928;-76
2022/06/06 09:48:21;;;;;;;;;;;18.00;99.90;;;;;;5036228;28;19921;-76
2022/06/06 09:50:47;;;;;;;;;;;18.20;99.90;;;;;;5037459;28;19925;-75
2022/06/06 09:53:31;;;;;;;;;;;18.30;99.90;;;;;;5037338;28;20335;-75
2022/06/06 09:59:02;;;;;;;;;;;18.50;99.90;;;;;;5037573;28;20384;-75
2022/06/06 10:01:33;;;;;;;;;;;18.60;99.90;;;;;;5037136;28;19928;-75
2022/06/06 10:04:17;;;;;;;;;;;18.70;99.90;;;;;;5036010;28;19925;-75
2022/06/06 10:06:57;;;;;;;;;;;18.70;99.90;;;;;;5037410;28;20024;-75
2022/06/06 10:09:26;;;;;;;;;;;18.80;99.90;;;;;;5019744;28;19929;-76
2022/06/06 10:12:10;;;;;;;;;;;18.70;99.90;;;;;;5037299;28;20369;-75
2022/06/06 10:14:55;;;;;;;;;;;18.60;99.90;;;;;;5037100;28;19921;-75
2022/06/06 10:17:40;;;;;;;;;;;18.50;99.90;;;;;;5026097;28;20007;-74
2022/06/06 10:20:24;;;;;;;;;;;18.30;99.60;;;;;;5036906;28;19960;-74
2022/06/06 10:22:55;;;;;;;;;;;18.40;98.80;;;;;;5036591;28;19928;-80
2022/06/06 10:25:39;;;;;;;;;;;18.50;99.90;;;;;;5036195;28;20277;-75
2022/06/06 10:28:05;;;;;;;;;;;18.60;99.80;;;;;;5036574;28;20014;-74
2022/06/06 10:30:32;;;;;;;;;;;18.80;99.50;;;;;;5019436;28;19960;-74
2022/06/06 10:32:57;;;;;;;;;;;18.80;99.30;;;;;;5036352;28;19967;-75
2022/06/06 10:35:41;;;;;;;;;;;18.90;98.50;;;;;;5036347;28;20365;-74
2022/06/06 10:38:10;;;;;;;;;;;19.00;98.90;;;;;;5036297;28;19975;-75
2022/06/06 10:40:43;;;;;;;;;;;19.00;98.30;;;;;;5036858;28;19975;-75
2022/06/06 10:43:08;;;;;;;;;;;19.10;97.90;;;;;;5034896;28;20018;-75
2022/06/06 10:45:34;;;;;;;;;;;19.20;96.20;;;;;;5036222;28;20439;-74
2022/06/06 10:48:05;;;;;;;;;;;19.20;98.50;;;;;;5037171;28;19930;-75
2022/06/06 10:53:32;;;;;;;;;;;19.50;97.30;;;;;;5014658;28;19968;-75
2022/06/06 10:56:16;;;;;;;;;;;19.60;96.40;;;;;;5035638;28;20415;-75
2022/06/06 10:58:47;;;;;;;;;;;19.70;94.20;;;;;;5035932;28;19944;-74
2022/06/06 11:01:16;;;;;;;;;;;19.70;95.00;;;;;;5046856;28;19977;-74
2022/06/06 11:03:50;;;;;;;;;;;19.50;95.50;;;;;;5048128;28;19977;-75
2022/06/06 11:06:16;;;;;;;;;;;19.50;96.60;;;;;;5058218;28;19928;-76
2022/06/06 11:08:41;;;;;;;;;;;19.40;96.40;;;;;;5060580;28;19905;-78
2022/06/06 11:11:10;;;;;;;;;;;19.20;94.50;;;;;;5057918;28;19955;-75
2022/06/06 11:13:35;;;;;;;;;;;19.00;96.40;;;;;;5053532;28;19967;-73
2022/06/06 11:16:10;;;;;;;;;;;19.00;97.90;;;;;;5018831;28;19921;-75
2022/06/06 11:18:59;;;;;;;;;;;19.00;97.80;;;;;;5036745;28;20262;-75
2022/06/06 11:21:36;;;;;;;;;;;18.90;98.10;;;;;;5027109;28;20361;-76
2022/06/06 11:24:03;;;;;;;;;;;18.80;98.30;;;;;;5034745;28;19982;-81
2022/06/06 11:26:32;;;;;;;;;;;18.70;99.00;;;;;;5034640;28;20327;-77
2022/06/06 11:28:58;;;;;;;;;;;18.60;98.60;;;;;;5035653;28;19932;-77
2022/06/06 11:31:42;;;;;;;;;;;18.40;99.40;;;;;;5035686;28;20328;-73
2022/06/06 11:34:26;;;;;;;;;;;18.20;99.90;;;;;;5035277;28;19921;-75
2022/06/06 11:36:57;;;;;;;;;;;17.90;99.90;;;;;;5035242;28;20115;-74
2022/06/06 11:39:38;;;;;;;;;;;17.70;99.90;;;;;;5034792;28;19928;-74
2022/06/06 11:42:18;;;;;;;;;;;17.80;99.90;;;;;;5036784;28;19921;-74
2022/06/06 11:45:03;;;;;;;;;;;17.90;99.90;;;;;;5035962;28;20015;-74
2022/06/06 11:47:36;;;;;;;;;;;18.00;99.90;;;;;;5035382;28;19932;-74
2022/06/06 11:50:09;;;;;;;;;;;18.00;99.90;;;;;;5034154;28;20400;-75
2022/06/06 11:52:38;;;;;;;;;;;17.90;99.90;;;;;;5034296;28;19921;-74
2022/06/06 11:55:04;;;;;;;;;;;18.00;99.90;;;;;;5034571;28;19925;-80
2022/06/06 11:57:48;;;;;;;;;;;18.00;99.90;;;;;;5035569;28;19921;-75
2022/06/06 12:00:13;;;;;;;;;;;17.90;99.90;;;;;;5034985;28;19972;-75
2022/06/06 12:02:57;;;;;;;;;;;17.90;99.90;;;;;;5035029;28;20018;-75
2022/06/06 12:05:47;;;;;;;;;;;18.00;99.90;;;;;;5033845;28;20059;-75
2022/06/06 12:08:32;;;;;;;;;;;18.10;99.90;;;;;;5034366;28;20281;-75
2022/06/06 12:11:10;;;;;;;;;;;18.30;99.90;;;;;;5034897;28;19925;-75
2022/06/06 12:13:45;;;;;;;;;;;18.40;99.90;;;;;;5034328;28;19968;-74
2022/06/06 12:16:10;;;;;;;;;;;18.50;99.90;;;;;;5035525;28;19928;-75
2022/06/06 12:18:58;;;;;;;;;;;18.60;99.90;;;;;;5017219;28;19921;-74
2022/06/06 12:21:43;;;;;;;;;;;18.50;99.90;;;;;;5033439;28;19921;-75
2022/06/06 12:24:17;;;;;;;;;;;18.20;99.90;;;;;;5034609;28;19924;-79
2022/06/06 12:27:02;;;;;;;;;;;18.00;99.90;;;;;;5034598;28;19921;-75
2022/06/06 12:29:28;;;;;;;;;;;17.90;99.90;;;;;;5033685;28;20020;-75
2022/06/06 12:31:56;;;;;;;;;;;17.90;99.90;;;;;;5034501;28;19999;-75
2022/06/06 12:34:22;;;;;;;;;;;17.90;99.90;;;;;;5034602;28;20281;-76
2022/06/06 12:36:50;;;;;;;;;;;17.80;99.90;;;;;;5034377;28;19925;-75
2022/06/06 12:39:25;;;;;;;;;;;17.70;99.90;;;;;;5034138;28;19947;-75
2022/06/06 12:41:53;;;;;;;;;;;17.60;99.90;;;;;;5034861;28;19975;-75
2022/06/06 12:44:28;;;;;;;;;;;17.60;99.80;;;;;;5017233;28;19920;-74
2022/06/06 12:47:12;;;;;;;;;;;17.50;99.80;;;;;;5033944;28;19925;-76
2022/06/06 12:49:50;;;;;;;;;;;17.40;99.90;;;;;;5033720;28;20280;-76
2022/06/06 12:52:15;;;;;;;;;;;17.30;99.90;;;;;;5034184;28;19971;-76
2022/06/06 12:57:49;;;;;;;;;;;17.00;99.90;;;;;;5033204;28;19925;-75
2022/06/06 13:00:15;;;;;;;;;;;16.80;99.90;;;;;;5033977;28;19921;-76
2022/06/06 13:02:45;;;;;;;;;;;16.70;99.90;;;;;;5032864;28;19927;-75
2022/06/06 13:05:12;;;;;;;;;;;16.60;99.90;;;;;;5032869;28;19983;-75
2022/06/06 13:07:53;;;;;;;;;;;16.60;99.90;;;;;;5038503;28;19925;-76
2022/06/06 13:10:28;;;;;;;;;;;16.60;99.90;;;;;;5039568;28;19925;-76
2022/06/06 13:13:17;;;;;;;;;;;16.70;99.90;;;;;;5038531;28;20381;-75
2022/06/06 13:15:42;;;;;;;;;;;16.80;99.90;;;;;;5041522;28;19921;-71
2022/06/06 13:18:28;;;;;;;;;;;16.90;99.90;;;;;;5053236;28;19948;-72
2022/06/06 13:21:05;;;;;;;;;;;16.90;99.90;;;;;;5054191;28;19925;-71
2022/06/06 13:23:40;;;;;;;;;;;16.80;99.90;;;;;;5054219;28;20051;-70
2022/06/06 13:26:24;;;;;;;;;;;16.60;99.90;;;;;;5008843;28;19922;-74
2022/06/06 13:28:50;;;;;;;;;;;16.60;99.90;;;;;;4998687;28;19922;-74
2022/06/06 13:31:45;;;;;;;;;;;16.40;99.90;;;;;;4998588;28;19929;-75
2022/06/06 13:34:14;;;;;;;;;;;16.30;99.90;;;;;;4988692;28;20012;-75
2022/06/06 13:36:42;;;;;;;;;;;16.30;99.90;;;;;;4997112;28;20306;-75
2022/06/06 13:39:14;;;;;;;;;;;16.10;99.90;;;;;;4998517;28;19933;-75
2022/06/06 13:41:49;;;;;;;;;;;16.10;99.90;;;;;;4998191;28;19921;-75
2022/06/06 13:44:34;;;;;;;;;;;16.00;99.90;;;;;;4999214;28;20040;-74
2022/06/06 13:47:00;;;;;;;;;;;16.00;99.90;;;;;;4998069;28;20255;-75
2022/06/06 13:49:43;;;;;;;;;;;15.90;99.90;;;;;;4998456;28;19929;-75
2022/06/06 13:52:17;;;;;;;;;;;15.80;99.90;;;;;;4998209;28;19932;-74
2022/06/06 13:54:42;;;;;;;;;;;15.80;99.90;;;;;;4997110;28;19921;-75
2022/06/06 13:57:20;;;;;;;;;;;15.80;99.90;;;;;;4997164;28;19922;-75
2022/06/06 13:59:52;;;;;;;;;;;15.80;99.90;;;;;;4997807;28;19921;-76
2022/06/06 14:02:30;;;;;;;;;;;15.80;99.90;;;;;;4997692;28;19925;-76
2022/06/06 14:05:01;;;;;;;;;;;15.80;99.90;;;;;;4997874;28;20407;-75
2022/06/06 14:07:53;;;;;;;;;;;15.70;99.90;;;;;;4997801;28;19984;-76
2022/06/06 14:10:19;;;;;;;;;;;15.80;99.90;;;;;;4978177;28;19922;-75
2022/06/06 14:12:49;;;;;;;;;;;15.80;99.90;;;;;;4996352;28;19928;-75
2022/06/06 14:15:15;;;;;;;;;;;15.80;99.90;;;;;;4980836;28;20259;-75
2022/06/06 14:17:41;;;;;;;;;;;15.80;99.90;;;;;;4996508;28;20274;-75
2022/06/06 14:20:12;;;;;;;;;;;15.80;99.90;;;;;;4996530;28;19921;-75
2022/06/06 14:22:37;;;;;;;;;;;15.80;99.90;;;;;;4997350;28;19945;-75
2022/06/06 14:25:04;;;;;;;;;;;15.70;99.90;;;;;;4996165;28;19922;-76
2022/06/06 14:27:30;;;;;;;;;;;15.70;99.90;;;;;;4999915;28;19927;-76
2022/06/06 14:30:06;;;;;;;;;;;15.70;99.90;;;;;;5016265;28;19975;-75
2022/06/06 14:32:33;;;;;;;;;;;15.70;99.90;;;;;;5016788;28;19921;-76
2022/06/06 14:34:59;;;;;;;;;;;15.70;99.90;;;;;;5000449;28;20261;-74
2022/06/06 14:37:29;;;;;;;;;;;15.60;99.90;;;;;;5016768;28;19928;-75
2022/06/06 14:39:55;;;;;;;;;;;15.60;99.90;;;;;;5016767;28;20020;-75
2022/06/06 14:42:27;;;;;;;;;;;15.50;99.90;;;;;;5017429;28;20269;-75
2022/06/06 14:45:00;;;;;;;;;;;15.50;99.90;;;;;;4999181;28;19921;-75
2022/06/06 14:47:25;;;;;;;;;;;15.40;99.90;;;;;;5015395;28;19965;-75
2022/06/06 14:52:37;;;;;;;;;;;15.20;99.90;;;;;;5015936;28;19925;-75
2022/06/06 14:55:03;;;;;;;;;;;15.10;99.90;;;;;;5016841;28;19925;-77
2022/06/06 14:57:30;;;;;;;;;;;15.00;99.90;;;;;;5015422;28;19921;-76
2022/06/06 14:59:56;;;;;;;;;;;14.90;99.90;;;;;;5015478;28;19987;-76
2022/06/06 15:02:22;;;;;;;;;;;14.80;99.90;;;;;;5015181;28;19975;-76
2022/06/06 15:04:49;;;;;;;;;;;14.70;99.90;;;;;;5015273;28;19925;-76
2022/06/06 15:07:16;;;;;;;;;;;14.70;99.90;;;;;;5016871;28;19925;-76